Terminal Aerodrome Forecast
Issued by NWS

Home | Current Version | Previous Version | Text Only | Print | Product List | Glossary On
Versions: 1 2 3 4 5 6 7 8 9 10 11 12 13 14 15 16
000
FTUS45 KTFX 301727
TAFCTB
TAF
KCTB 301727Z 3018/3118 32015G30KT P6SM VCSH SCT025 BKN040
     FM310200 32015KT P6SM SCT030
     FM311200 31015KT P6SM BKN020=

USA.gov is the U.S. government's official web portal to all federal, state and local government web resources and services.